ETD1226 RCTP-ZSSS
Flight info
| Callsign | ETD1226 |
|---|---|
| Flight time | 1h 12m |
| Altitude | 39000 |
| Route | PIANO L3 VIOLA R596 SULEM R596 DST B221 SHZ G204 JTN |
| Aircraft | A346/H-SDE2E3FGHIJ3J4J5M1RWXY/LB1D1 |
Departure
| Time | 2026-05-06 13:48 |
|---|---|
| Airport | Taiwan Taoyuan International Airport (RCTP) |
Arrival
| Time | 2026-05-06 15:01 |
|---|---|
| Airport | Shanghai Hongqiao International Airport (ZSSS) |
| Time | Latitude | Longitude | Altitude | Speed | Heading |
|---|---|---|---|---|---|
| 2026-05-06 13:27 | 25.07496 | 121.23688 | 108 ft | 0 kts | 320° |
| 2026-05-06 13:35 | 25.07481 | 121.23702 | 109 ft | 4 kts | 319° |
| 2026-05-06 13:36 | 25.07462 | 121.23720 | 107 ft | 4 kts | 317° |
| 2026-05-06 13:36 | 25.07452 | 121.23732 | 105 ft | 4 kts | 300° |
| 2026-05-06 13:36 | 25.07447 | 121.23751 | 104 ft | 4 kts | 262° |
| 2026-05-06 13:36 | 25.07456 | 121.23772 | 106 ft | 4 kts | 232° |
| 2026-05-06 13:37 | 25.07474 | 121.23794 | 105 ft | 4 kts | 226° |
| 2026-05-06 13:37 | 25.07482 | 121.23803 | 106 ft | 1 kts | 227° |
| 2026-05-06 13:37 | 25.07482 | 121.23804 | 106 ft | 0 kts | 227° |
| 2026-05-06 13:40 | 25.07475 | 121.23796 | 108 ft | 3 kts | 227° |
| 2026-05-06 13:41 | 25.07452 | 121.23768 | 109 ft | 7 kts | 227° |
| 2026-05-06 13:41 | 25.07412 | 121.23718 | 109 ft | 10 kts | 230° |
| 2026-05-06 13:41 | 25.07358 | 121.23649 | 109 ft | 13 kts | 229° |
| 2026-05-06 13:41 | 25.07289 | 121.23563 | 110 ft | 16 kts | 229° |
| 2026-05-06 13:42 | 25.07208 | 121.23460 | 110 ft | 19 kts | 229° |
| 2026-05-06 13:42 | 25.07186 | 121.23433 | 110 ft | 0 kts | 229° |
| 2026-05-06 13:42 | 25.07186 | 121.23432 | 110 ft | 0 kts | 229° |
| 2026-05-06 13:43 | 25.07157 | 121.23396 | 110 ft | 11 kts | 229° |
| 2026-05-06 13:43 | 25.07099 | 121.23324 | 109 ft | 14 kts | 229° |
| 2026-05-06 13:43 | 25.07030 | 121.23235 | 109 ft | 17 kts | 230° |
| 2026-05-06 13:43 | 25.06946 | 121.23129 | 110 ft | 20 kts | 229° |
| 2026-05-06 13:44 | 25.06848 | 121.23004 | 109 ft | 23 kts | 229° |
| 2026-05-06 13:44 | 25.06736 | 121.22860 | 108 ft | 25 kts | 229° |
| 2026-05-06 13:44 | 25.06615 | 121.22708 | 109 ft | 27 kts | 228° |
| 2026-05-06 13:44 | 25.06502 | 121.22566 | 109 ft | 17 kts | 229° |
| 2026-05-06 13:45 | 25.06419 | 121.22461 | 110 ft | 15 kts | 229° |
| 2026-05-06 13:45 | 25.06356 | 121.22381 | 109 ft | 4 kts | 229° |
| 2026-05-06 13:45 | 25.06307 | 121.22319 | 110 ft | 13 kts | 229° |
| 2026-05-06 13:46 | 25.06232 | 121.22256 | 110 ft | 14 kts | 186° |
| 2026-05-06 13:46 | 25.06192 | 121.22270 | 108 ft | 1 kts | 144° |
| 2026-05-06 13:46 | 25.06173 | 121.22289 | 107 ft | 6 kts | 131° |
| 2026-05-06 13:46 | 25.06141 | 121.22347 | 107 ft | 11 kts | 110° |
| 2026-05-06 13:47 | 25.06160 | 121.22434 | 107 ft | 13 kts | 56° |
| 2026-05-06 13:47 | 25.06193 | 121.22492 | 105 ft | 9 kts | 50° |
| 2026-05-06 13:47 | 25.06195 | 121.22496 | 105 ft | 1 kts | 50° |
| 2026-05-06 13:47 | 25.06353 | 121.22694 | 105 ft | 69 kts | 48° |
| 2026-05-06 13:48 | 25.06817 | 121.23280 | 104 ft | 131 kts | 49° |
| 2026-05-06 13:48 | 25.07545 | 121.24199 | 126 ft | 178 kts | 48° |
| 2026-05-06 13:48 | 25.08397 | 121.25303 | 541 ft | 195 kts | 49° |
| 2026-05-06 13:48 | 25.09289 | 121.26432 | 1356 ft | 190 kts | 45° |
| 2026-05-06 13:49 | 25.10208 | 121.27441 | 2232 ft | 187 kts | 51° |
| 2026-05-06 13:49 | 25.11058 | 121.28599 | 2679 ft | 202 kts | 53° |
| 2026-05-06 13:49 | 25.12012 | 121.29822 | 3080 ft | 220 kts | 43° |
| 2026-05-06 13:49 | 25.13294 | 121.30862 | 3461 ft | 237 kts | 33° |
| 2026-05-06 13:50 | 25.14748 | 121.31888 | 3814 ft | 259 kts | 32° |
| 2026-05-06 13:50 | 25.16316 | 121.32995 | 4282 ft | 276 kts | 32° |
| 2026-05-06 13:50 | 25.17944 | 121.34169 | 4990 ft | 281 kts | 32° |
| 2026-05-06 13:50 | 25.19583 | 121.35374 | 5774 ft | 285 kts | 32° |
| 2026-05-06 13:51 | 25.21243 | 121.36610 | 6536 ft | 290 kts | 32° |
| 2026-05-06 13:51 | 25.22923 | 121.37869 | 7278 ft | 295 kts | 32° |
| 2026-05-06 13:51 | 25.24632 | 121.39154 | 8064 ft | 299 kts | 32° |
| 2026-05-06 13:51 | 25.26365 | 121.40462 | 8845 ft | 304 kts | 32° |
| 2026-05-06 13:52 | 25.28120 | 121.41789 | 9650 ft | 308 kts | 32° |
| 2026-05-06 13:52 | 25.29904 | 121.43136 | 10418 ft | 313 kts | 32° |
| 2026-05-06 13:52 | 25.31744 | 121.44524 | 10936 ft | 328 kts | 32° |
| 2026-05-06 13:52 | 25.33679 | 121.45985 | 11318 ft | 346 kts | 32° |
| 2026-05-06 13:53 | 25.35688 | 121.47504 | 11679 ft | 363 kts | 33° |
| 2026-05-06 13:53 | 25.37826 | 121.49125 | 12006 ft | 381 kts | 33° |
| 2026-05-06 13:53 | 25.40066 | 121.50825 | 12319 ft | 398 kts | 33° |
| 2026-05-06 13:53 | 25.42382 | 121.52587 | 12830 ft | 408 kts | 33° |
| 2026-05-06 13:54 | 25.44727 | 121.54370 | 13607 ft | 409 kts | 33° |
| 2026-05-06 13:54 | 25.47073 | 121.56156 | 14321 ft | 410 kts | 33° |
| 2026-05-06 13:54 | 25.49441 | 121.57963 | 14900 ft | 415 kts | 33° |
| 2026-05-06 13:54 | 25.51831 | 121.59781 | 15470 ft | 420 kts | 33° |
| 2026-05-06 13:55 | 25.54255 | 121.61625 | 16081 ft | 423 kts | 33° |
| 2026-05-06 13:55 | 25.56694 | 121.63483 | 16671 ft | 427 kts | 33° |
| 2026-05-06 13:55 | 25.59154 | 121.65358 | 17251 ft | 431 kts | 33° |
| 2026-05-06 13:55 | 25.61646 | 121.67257 | 17826 ft | 435 kts | 32° |
| 2026-05-06 13:56 | 25.64145 | 121.69163 | 18375 ft | 439 kts | 32° |
| 2026-05-06 13:56 | 25.66674 | 121.71092 | 18855 ft | 442 kts | 32° |
| 2026-05-06 13:56 | 25.69218 | 121.73033 | 19351 ft | 446 kts | 32° |
| 2026-05-06 13:56 | 25.71785 | 121.74992 | 19864 ft | 449 kts | 32° |
| 2026-05-06 13:57 | 25.74365 | 121.76963 | 20376 ft | 452 kts | 32° |
| 2026-05-06 13:57 | 25.76932 | 121.78926 | 20877 ft | 455 kts | 32° |
| 2026-05-06 13:57 | 25.79587 | 121.80955 | 21392 ft | 459 kts | 33° |
| 2026-05-06 13:57 | 25.82211 | 121.82991 | 21941 ft | 461 kts | 34° |
| 2026-05-06 13:58 | 25.84812 | 121.85087 | 22466 ft | 464 kts | 34° |
| 2026-05-06 13:58 | 25.87427 | 121.87215 | 22979 ft | 467 kts | 34° |
| 2026-05-06 13:58 | 25.90026 | 121.89332 | 23455 ft | 471 kts | 34° |
| 2026-05-06 13:58 | 25.92714 | 121.91517 | 23898 ft | 474 kts | 34° |
| 2026-05-06 13:59 | 25.95387 | 121.93688 | 24320 ft | 477 kts | 34° |
| 2026-05-06 13:59 | 25.98079 | 121.95871 | 24718 ft | 481 kts | 34° |
| 2026-05-06 13:59 | 26.00761 | 121.98045 | 25118 ft | 484 kts | 34° |
| 2026-05-06 13:59 | 26.03500 | 122.00258 | 25531 ft | 487 kts | 33° |
| 2026-05-06 14:00 | 26.06274 | 122.02444 | 25941 ft | 491 kts | 32° |
| 2026-05-06 14:00 | 26.09080 | 122.04633 | 26344 ft | 494 kts | 32° |
| 2026-05-06 14:00 | 26.11903 | 122.06831 | 26769 ft | 497 kts | 32° |
| 2026-05-06 14:00 | 26.14746 | 122.09048 | 27191 ft | 500 kts | 32° |
| 2026-05-06 14:01 | 26.17598 | 122.11276 | 27641 ft | 502 kts | 32° |
| 2026-05-06 14:01 | 26.20467 | 122.13522 | 28043 ft | 506 kts | 32° |
| 2026-05-06 14:01 | 26.23354 | 122.15784 | 28440 ft | 509 kts | 32° |
| 2026-05-06 14:01 | 26.26265 | 122.18067 | 28917 ft | 511 kts | 32° |
| 2026-05-06 14:02 | 26.29191 | 122.20366 | 29531 ft | 509 kts | 31° |
| 2026-05-06 14:02 | 26.32086 | 122.22643 | 30188 ft | 508 kts | 31° |
| 2026-05-06 14:02 | 26.34969 | 122.24910 | 30734 ft | 506 kts | 31° |
| 2026-05-06 14:02 | 26.37836 | 122.27163 | 31318 ft | 503 kts | 31° |
| 2026-05-06 14:03 | 26.40693 | 122.29412 | 31960 ft | 500 kts | 31° |
| 2026-05-06 14:03 | 26.43524 | 122.31642 | 32621 ft | 497 kts | 31° |
| 2026-05-06 14:03 | 26.46339 | 122.33860 | 33300 ft | 493 kts | 31° |
| 2026-05-06 14:03 | 26.49130 | 122.36062 | 33991 ft | 489 kts | 31° |
| 2026-05-06 14:04 | 26.51903 | 122.38250 | 34556 ft | 486 kts | 31° |
| 2026-05-06 14:04 | 26.54662 | 122.40427 | 35074 ft | 484 kts | 31° |
| 2026-05-06 14:04 | 26.57409 | 122.42596 | 35549 ft | 484 kts | 31° |
| 2026-05-06 14:04 | 26.60163 | 122.44772 | 35943 ft | 484 kts | 31° |
| 2026-05-06 14:05 | 26.62918 | 122.46950 | 36272 ft | 486 kts | 31° |
| 2026-05-06 14:05 | 26.65685 | 122.49138 | 36579 ft | 488 kts | 31° |
| 2026-05-06 14:05 | 26.68461 | 122.51335 | 36899 ft | 489 kts | 31° |
| 2026-05-06 14:05 | 26.71244 | 122.53539 | 37040 ft | 491 kts | 31° |
| 2026-05-06 14:06 | 26.76823 | 122.57964 | 37042 ft | 491 kts | 31° |
| 2026-05-06 14:06 | 26.82399 | 122.62392 | 37051 ft | 491 kts | 31° |
| 2026-05-06 14:07 | 26.87974 | 122.66825 | 37032 ft | 492 kts | 31° |
| 2026-05-06 14:07 | 26.93558 | 122.71270 | 37030 ft | 492 kts | 31° |
| 2026-05-06 14:08 | 26.99141 | 122.75719 | 37049 ft | 492 kts | 31° |
| 2026-05-06 14:08 | 27.04712 | 122.80166 | 37033 ft | 492 kts | 31° |
| 2026-05-06 14:09 | 27.10289 | 122.84623 | 37050 ft | 492 kts | 31° |
| 2026-05-06 14:09 | 27.16014 | 122.88658 | 37052 ft | 484 kts | 19° |
| 2026-05-06 14:10 | 27.22413 | 122.90770 | 37045 ft | 472 kts | 3° |
| 2026-05-06 14:10 | 27.25660 | 122.90842 | 37038 ft | 462 kts | 348° |
| 2026-05-06 14:10 | 27.28784 | 122.90048 | 37069 ft | 457 kts | 339° |
| 2026-05-06 14:11 | 27.34420 | 122.87031 | 37056 ft | 450 kts | 323° |
| 2026-05-06 14:11 | 27.39018 | 122.82334 | 37050 ft | 445 kts | 307° |
| 2026-05-06 14:12 | 27.42186 | 122.76388 | 37052 ft | 444 kts | 292° |
| 2026-05-06 14:12 | 27.43703 | 122.69651 | 37048 ft | 446 kts | 277° |
| 2026-05-06 14:13 | 27.43864 | 122.62649 | 37048 ft | 447 kts | 272° |
| 2026-05-06 14:13 | 27.43878 | 122.55632 | 37045 ft | 447 kts | 272° |
| 2026-05-06 14:14 | 27.43894 | 122.48612 | 37040 ft | 447 kts | 272° |
| 2026-05-06 14:14 | 27.44263 | 122.41618 | 37047 ft | 446 kts | 277° |
| 2026-05-06 14:15 | 27.45219 | 122.34698 | 37045 ft | 446 kts | 282° |
| 2026-05-06 14:15 | 27.46415 | 122.27831 | 37043 ft | 447 kts | 282° |
| 2026-05-06 14:16 | 27.47618 | 122.20955 | 37052 ft | 447 kts | 282° |
| 2026-05-06 14:16 | 27.48823 | 122.14052 | 37044 ft | 447 kts | 282° |
| 2026-05-06 14:17 | 27.50212 | 122.07231 | 37039 ft | 446 kts | 290° |
| 2026-05-06 14:17 | 27.53148 | 122.01133 | 37042 ft | 448 kts | 306° |
| 2026-05-06 14:18 | 27.57602 | 121.96134 | 37049 ft | 452 kts | 321° |
| 2026-05-06 14:18 | 27.63134 | 121.92788 | 37050 ft | 459 kts | 337° |
| 2026-05-06 14:19 | 27.69347 | 121.90968 | 37056 ft | 462 kts | 343° |
| 2026-05-06 14:19 | 27.75615 | 121.89380 | 37058 ft | 462 kts | 343° |
| 2026-05-06 14:20 | 27.81891 | 121.87787 | 37052 ft | 462 kts | 343° |
| 2026-05-06 14:20 | 27.88161 | 121.86184 | 37050 ft | 462 kts | 343° |
| 2026-05-06 14:21 | 27.94431 | 121.84576 | 37050 ft | 462 kts | 343° |
| 2026-05-06 14:21 | 28.00704 | 121.82964 | 37052 ft | 462 kts | 343° |
| 2026-05-06 14:22 | 28.06967 | 121.81353 | 37060 ft | 462 kts | 343° |
| 2026-05-06 14:22 | 28.13236 | 121.79738 | 37058 ft | 462 kts | 343° |
| 2026-05-06 14:23 | 28.18442 | 121.78396 | 37055 ft | 461 kts | 343° |
| 2026-05-06 14:23 | 28.24705 | 121.76778 | 37053 ft | 461 kts | 343° |
| 2026-05-06 14:24 | 28.30967 | 121.75162 | 37062 ft | 461 kts | 343° |
| 2026-05-06 14:24 | 28.37230 | 121.73549 | 37053 ft | 462 kts | 343° |
| 2026-05-06 14:25 | 28.43490 | 121.71922 | 37050 ft | 462 kts | 343° |
| 2026-05-06 14:25 | 28.49749 | 121.70294 | 37051 ft | 462 kts | 343° |
| 2026-05-06 14:26 | 28.56012 | 121.68665 | 36798 ft | 461 kts | 343° |
| 2026-05-06 14:26 | 28.59139 | 121.67852 | 36555 ft | 459 kts | 343° |
| 2026-05-06 14:26 | 28.62239 | 121.67046 | 36302 ft | 457 kts | 343° |
| 2026-05-06 14:27 | 28.65336 | 121.66240 | 36048 ft | 455 kts | 343° |
| 2026-05-06 14:27 | 28.68384 | 121.65446 | 35812 ft | 454 kts | 343° |
| 2026-05-06 14:27 | 28.71457 | 121.64645 | 35579 ft | 454 kts | 343° |
| 2026-05-06 14:27 | 28.74543 | 121.63839 | 35335 ft | 455 kts | 343° |
| 2026-05-06 14:28 | 28.77627 | 121.63034 | 35091 ft | 455 kts | 343° |
| 2026-05-06 14:28 | 28.80714 | 121.62227 | 34851 ft | 456 kts | 343° |
| 2026-05-06 14:28 | 28.83812 | 121.61417 | 34617 ft | 457 kts | 343° |
| 2026-05-06 14:28 | 28.86911 | 121.60607 | 34398 ft | 458 kts | 343° |
| 2026-05-06 14:29 | 28.90024 | 121.59792 | 34168 ft | 460 kts | 343° |
| 2026-05-06 14:29 | 28.93145 | 121.58975 | 33926 ft | 461 kts | 343° |
| 2026-05-06 14:29 | 28.96279 | 121.58156 | 33658 ft | 462 kts | 343° |
| 2026-05-06 14:29 | 28.99414 | 121.57336 | 33262 ft | 464 kts | 343° |
| 2026-05-06 14:30 | 29.02564 | 121.56511 | 32755 ft | 465 kts | 343° |
| 2026-05-06 14:30 | 29.05727 | 121.55684 | 32148 ft | 466 kts | 342° |
| 2026-05-06 14:30 | 29.08890 | 121.54856 | 31477 ft | 467 kts | 342° |
| 2026-05-06 14:30 | 29.12062 | 121.54025 | 30791 ft | 469 kts | 342° |
| 2026-05-06 14:31 | 29.15248 | 121.53188 | 30073 ft | 471 kts | 341° |
| 2026-05-06 14:31 | 29.18448 | 121.52343 | 29243 ft | 473 kts | 341° |
| 2026-05-06 14:31 | 29.21683 | 121.51485 | 28442 ft | 475 kts | 342° |
| 2026-05-06 14:31 | 29.24905 | 121.50632 | 27795 ft | 474 kts | 342° |
| 2026-05-06 14:32 | 29.28095 | 121.49791 | 27326 ft | 468 kts | 342° |
| 2026-05-06 14:32 | 29.31257 | 121.48959 | 26782 ft | 465 kts | 342° |
| 2026-05-06 14:32 | 29.34402 | 121.48129 | 26277 ft | 461 kts | 342° |
| 2026-05-06 14:32 | 29.37478 | 121.47317 | 25756 ft | 459 kts | 342° |
| 2026-05-06 14:33 | 29.40575 | 121.46498 | 25248 ft | 456 kts | 342° |
| 2026-05-06 14:33 | 29.43659 | 121.45682 | 24752 ft | 453 kts | 343° |
| 2026-05-06 14:33 | 29.46722 | 121.44872 | 24299 ft | 450 kts | 343° |
| 2026-05-06 14:33 | 29.49759 | 121.44068 | 23837 ft | 446 kts | 343° |
| 2026-05-06 14:34 | 29.52771 | 121.43270 | 23365 ft | 443 kts | 343° |
| 2026-05-06 14:34 | 29.55773 | 121.42476 | 22851 ft | 440 kts | 343° |
| 2026-05-06 14:34 | 29.58738 | 121.41691 | 22396 ft | 435 kts | 343° |
| 2026-05-06 14:34 | 29.61673 | 121.40913 | 21952 ft | 431 kts | 343° |
| 2026-05-06 14:35 | 29.64585 | 121.40140 | 21523 ft | 427 kts | 343° |
| 2026-05-06 14:35 | 29.67465 | 121.39375 | 21082 ft | 424 kts | 343° |
| 2026-05-06 14:35 | 29.70329 | 121.38613 | 20651 ft | 421 kts | 343° |
| 2026-05-06 14:35 | 29.73174 | 121.37856 | 20214 ft | 418 kts | 343° |
| 2026-05-06 14:36 | 29.75999 | 121.37103 | 19780 ft | 415 kts | 343° |
| 2026-05-06 14:36 | 29.78801 | 121.36356 | 19355 ft | 413 kts | 343° |
| 2026-05-06 14:36 | 29.81596 | 121.35611 | 18919 ft | 411 kts | 343° |
| 2026-05-06 14:36 | 29.84371 | 121.34870 | 18483 ft | 409 kts | 343° |
| 2026-05-06 14:37 | 29.87139 | 121.34131 | 18014 ft | 407 kts | 343° |
| 2026-05-06 14:37 | 29.89893 | 121.33393 | 17540 ft | 404 kts | 343° |
| 2026-05-06 14:37 | 29.92602 | 121.32586 | 17093 ft | 401 kts | 342° |
| 2026-05-06 14:37 | 29.95286 | 121.31738 | 16660 ft | 398 kts | 341° |
| 2026-05-06 14:38 | 29.97911 | 121.30903 | 16223 ft | 395 kts | 342° |
| 2026-05-06 14:38 | 30.00556 | 121.30065 | 15796 ft | 393 kts | 342° |
| 2026-05-06 14:38 | 30.03188 | 121.29236 | 15359 ft | 391 kts | 342° |
| 2026-05-06 14:38 | 30.05805 | 121.28413 | 14921 ft | 389 kts | 342° |
| 2026-05-06 14:39 | 30.08410 | 121.27596 | 14490 ft | 388 kts | 343° |
| 2026-05-06 14:39 | 30.11012 | 121.26780 | 14060 ft | 386 kts | 343° |
| 2026-05-06 14:39 | 30.13598 | 121.25969 | 13610 ft | 385 kts | 343° |
| 2026-05-06 14:39 | 30.16191 | 121.25157 | 13144 ft | 382 kts | 343° |
| 2026-05-06 14:40 | 30.18750 | 121.24357 | 12708 ft | 379 kts | 343° |
| 2026-05-06 14:40 | 30.21286 | 121.23563 | 12276 ft | 376 kts | 342° |
| 2026-05-06 14:40 | 30.23818 | 121.22831 | 11851 ft | 374 kts | 347° |
| 2026-05-06 14:40 | 30.26402 | 121.22483 | 11422 ft | 373 kts | 355° |
| 2026-05-06 14:41 | 30.28988 | 121.22567 | 10999 ft | 371 kts | 3° |
| 2026-05-06 14:41 | 30.31545 | 121.22880 | 10741 ft | 366 kts | 5° |
| 2026-05-06 14:41 | 30.34066 | 121.23230 | 10631 ft | 364 kts | 5° |
| 2026-05-06 14:41 | 30.36577 | 121.23577 | 10513 ft | 363 kts | 5° |
| 2026-05-06 14:42 | 30.39090 | 121.23913 | 10384 ft | 362 kts | 5° |
| 2026-05-06 14:42 | 30.41586 | 121.24240 | 10273 ft | 361 kts | 5° |
| 2026-05-06 14:42 | 30.44084 | 121.24568 | 10157 ft | 360 kts | 4° |
| 2026-05-06 14:42 | 30.46567 | 121.24909 | 10044 ft | 359 kts | 4° |
| 2026-05-06 14:43 | 30.49039 | 121.25274 | 9866 ft | 356 kts | 5° |
| 2026-05-06 14:43 | 30.51474 | 121.25645 | 9530 ft | 349 kts | 5° |
| 2026-05-06 14:43 | 30.53852 | 121.26008 | 9211 ft | 342 kts | 6° |
| 2026-05-06 14:43 | 30.56185 | 121.26354 | 8921 ft | 334 kts | 4° |
| 2026-05-06 14:44 | 30.58448 | 121.26657 | 8856 ft | 319 kts | 5° |
| 2026-05-06 14:44 | 30.60606 | 121.26946 | 8837 ft | 304 kts | 4° |
| 2026-05-06 14:44 | 30.62664 | 121.27217 | 8829 ft | 294 kts | 3° |
| 2026-05-06 14:45 | 30.66723 | 121.27748 | 8836 ft | 293 kts | 4° |
| 2026-05-06 14:45 | 30.68749 | 121.28018 | 8834 ft | 293 kts | 4° |
| 2026-05-06 14:45 | 30.70776 | 121.28294 | 8836 ft | 294 kts | 4° |
| 2026-05-06 14:45 | 30.72808 | 121.28571 | 8831 ft | 293 kts | 5° |
| 2026-05-06 14:46 | 30.74829 | 121.28858 | 8834 ft | 293 kts | 5° |
| 2026-05-06 14:46 | 30.76869 | 121.29153 | 8831 ft | 293 kts | 5° |
| 2026-05-06 14:46 | 30.78898 | 121.29445 | 8833 ft | 294 kts | 4° |
| 2026-05-06 14:46 | 30.80922 | 121.29728 | 8835 ft | 293 kts | 5° |
| 2026-05-06 14:47 | 30.82950 | 121.30015 | 8838 ft | 293 kts | 4° |
| 2026-05-06 14:47 | 30.84950 | 121.30297 | 8838 ft | 293 kts | 4° |
| 2026-05-06 14:47 | 30.87007 | 121.30583 | 8841 ft | 293 kts | 5° |
| 2026-05-06 14:47 | 30.89008 | 121.30864 | 8842 ft | 293 kts | 5° |
| 2026-05-06 14:48 | 30.91029 | 121.31148 | 8842 ft | 293 kts | 5° |
| 2026-05-06 14:48 | 30.93054 | 121.31438 | 8841 ft | 293 kts | 5° |
| 2026-05-06 14:48 | 30.95076 | 121.31726 | 8835 ft | 293 kts | 5° |
| 2026-05-06 14:48 | 30.97124 | 121.32018 | 8836 ft | 293 kts | 5° |
| 2026-05-06 14:49 | 30.99123 | 121.32302 | 8831 ft | 293 kts | 5° |
| 2026-05-06 14:49 | 31.01140 | 121.32590 | 8832 ft | 293 kts | 5° |
| 2026-05-06 14:49 | 31.03162 | 121.32877 | 8829 ft | 293 kts | 5° |
| 2026-05-06 14:49 | 31.05186 | 121.33164 | 8827 ft | 293 kts | 5° |
| 2026-05-06 14:50 | 31.07211 | 121.33452 | 8758 ft | 293 kts | 5° |
| 2026-05-06 14:50 | 31.09250 | 121.33742 | 8380 ft | 294 kts | 5° |
| 2026-05-06 14:50 | 31.11276 | 121.33844 | 7996 ft | 290 kts | 347° |
| 2026-05-06 14:50 | 31.13053 | 121.32872 | 7661 ft | 281 kts | 316° |
| 2026-05-06 14:51 | 31.14256 | 121.31100 | 7363 ft | 275 kts | 301° |
| 2026-05-06 14:51 | 31.15295 | 121.29230 | 7066 ft | 273 kts | 301° |
| 2026-05-06 14:51 | 31.16337 | 121.27378 | 6759 ft | 272 kts | 302° |
| 2026-05-06 14:51 | 31.17387 | 121.25547 | 6465 ft | 270 kts | 303° |
| 2026-05-06 14:52 | 31.18435 | 121.23748 | 6286 ft | 263 kts | 303° |
| 2026-05-06 14:52 | 31.19437 | 121.22032 | 6282 ft | 248 kts | 303° |
| 2026-05-06 14:52 | 31.20389 | 121.20415 | 6258 ft | 235 kts | 308° |
| 2026-05-06 14:52 | 31.21675 | 121.19287 | 6190 ft | 237 kts | 342° |
| 2026-05-06 14:53 | 31.23325 | 121.19067 | 5896 ft | 240 kts | 356° |
| 2026-05-06 14:53 | 31.24996 | 121.18992 | 5598 ft | 241 kts | 355° |
| 2026-05-06 14:53 | 31.26666 | 121.18906 | 5303 ft | 240 kts | 354° |
| 2026-05-06 14:53 | 31.28331 | 121.18802 | 5036 ft | 239 kts | 354° |
| 2026-05-06 14:54 | 31.29983 | 121.18685 | 4768 ft | 237 kts | 354° |
| 2026-05-06 14:54 | 31.31632 | 121.18567 | 4492 ft | 236 kts | 354° |
| 2026-05-06 14:54 | 31.33264 | 121.18446 | 4223 ft | 234 kts | 354° |
| 2026-05-06 14:54 | 31.34894 | 121.18377 | 3940 ft | 235 kts | 5° |
| 2026-05-06 14:55 | 31.36415 | 121.19030 | 3709 ft | 235 kts | 37° |
| 2026-05-06 14:55 | 31.37407 | 121.20503 | 3479 ft | 231 kts | 72° |
| 2026-05-06 14:55 | 31.37603 | 121.22333 | 3260 ft | 225 kts | 95° |
| 2026-05-06 14:55 | 31.37523 | 121.24171 | 3011 ft | 225 kts | 94° |
| 2026-05-06 14:56 | 31.37546 | 121.26007 | 2774 ft | 225 kts | 89° |
| 2026-05-06 14:56 | 31.37686 | 121.27823 | 2564 ft | 222 kts | 86° |
| 2026-05-06 14:56 | 31.37875 | 121.29610 | 2453 ft | 220 kts | 92° |
| 2026-05-06 14:56 | 31.37514 | 121.31287 | 2207 ft | 210 kts | 128° |
| 2026-05-06 14:57 | 31.36451 | 121.32339 | 2006 ft | 201 kts | 158° |
| 2026-05-06 14:57 | 31.35107 | 121.32753 | 1998 ft | 201 kts | 172° |
| 2026-05-06 14:57 | 31.33718 | 121.32898 | 1978 ft | 201 kts | 176° |
| 2026-05-06 14:57 | 31.32322 | 121.32962 | 1976 ft | 200 kts | 177° |
| 2026-05-06 14:58 | 31.30944 | 121.33020 | 1888 ft | 193 kts | 177° |
| 2026-05-06 14:58 | 31.29647 | 121.33086 | 1664 ft | 181 kts | 176° |
| 2026-05-06 14:58 | 31.28430 | 121.33152 | 1386 ft | 168 kts | 176° |
| 2026-05-06 14:58 | 31.27312 | 121.33215 | 1156 ft | 154 kts | 176° |
| 2026-05-06 14:59 | 31.26263 | 121.33273 | 975 ft | 150 kts | 176° |
| 2026-05-06 14:59 | 31.25224 | 121.33330 | 787 ft | 149 kts | 175° |
| 2026-05-06 14:59 | 31.24195 | 121.33387 | 621 ft | 148 kts | 175° |
| 2026-05-06 14:59 | 31.23171 | 121.33440 | 411 ft | 147 kts | 175° |
| 2026-05-06 15:00 | 31.22151 | 121.33495 | 251 ft | 147 kts | 175° |
| 2026-05-06 15:00 | 31.21123 | 121.33551 | 69 ft | 148 kts | 176° |
| 2026-05-06 15:00 | 31.20145 | 121.33613 | 29 ft | 118 kts | 178° |
| 2026-05-06 15:00 | 31.19553 | 121.33642 | 29 ft | 54 kts | 177° |
| 2026-05-06 15:01 | 31.19302 | 121.33574 | 28 ft | 23 kts | 201° |
| 2026-05-06 15:01 | 31.19207 | 121.33521 | 28 ft | 16 kts | 205° |
| 2026-05-06 15:01 | 31.19131 | 121.33455 | 28 ft | 6 kts | 243° |
| 2026-05-06 15:01 | 31.19121 | 121.33413 | 27 ft | 0 kts | 261° |
| 2026-05-06 15:02 | 31.19120 | 121.33406 | 27 ft | 8 kts | 261° |
| 2026-05-06 15:02 | 31.19110 | 121.33187 | 27 ft | 35 kts | 268° |
| 2026-05-06 15:03 | 31.19203 | 121.33012 | 27 ft | 29 kts | 5° |
| 2026-05-06 15:03 | 31.19350 | 121.33001 | 27 ft | 20 kts | 354° |
| 2026-05-06 15:03 | 31.19489 | 121.32989 | 27 ft | 18 kts | 356° |
| 2026-05-06 15:03 | 31.19578 | 121.32922 | 27 ft | 19 kts | 272° |
| 2026-05-06 15:04 | 31.19577 | 121.32846 | 27 ft | 0 kts | 269° |
| 2026-05-06 15:04 | 31.19576 | 121.32827 | 27 ft | 10 kts | 266° |
| 2026-05-06 15:04 | 31.19532 | 121.32794 | 27 ft | 10 kts | 194° |
| 2026-05-06 15:04 | 31.19500 | 121.32784 | 27 ft | 0 kts | 194° |
| 2026-05-06 15:05 | 31.19498 | 121.32784 | 27 ft | 0 kts | 192° |
| 2026-05-06 15:06 | 31.07448 | 121.33486 | 8712 ft | 0 kts | 5° |
| 2026-05-06 15:06 | 31.31732 | 121.32985 | 1969 ft | 0 kts | 177° |
| 2026-05-06 15:06 | 31.30386 | 121.33047 | 1801 ft | 0 kts | 177° |